createdAt,value
2022-08-17T00:00:34.965Z,100729.81
2022-08-17T00:03:06.839Z,100733.56
2022-08-17T00:05:39.460Z,100725.59
2022-08-17T00:08:07.596Z,100720.31
2022-08-17T00:10:36.253Z,100717.78
2022-08-17T00:13:07.818Z,100672.53
2022-08-17T00:15:35.907Z,100716.75
2022-08-17T00:18:04.054Z,100715.72
2022-08-17T00:20:53.589Z,100717.78
2022-08-17T00:23:21.750Z,100716.06
2022-08-17T00:25:50.047Z,100713.34
2022-08-17T00:28:18.235Z,100716.06
2022-08-17T00:30:52.773Z,100717.94
2022-08-17T00:33:25.848Z,100721.50
2022-08-17T00:35:56.662Z,100696.25
2022-08-17T00:38:26.142Z,100708.97
2022-08-17T00:40:59.178Z,100709.97
2022-08-17T00:43:32.896Z,100712.69
2022-08-17T00:46:02.873Z,100708.44
2022-08-17T00:48:32.049Z,100714.75
2022-08-17T00:51:07.789Z,100714.56
2022-08-17T00:53:39.849Z,100713.03
2022-08-17T00:56:11.918Z,100717.59
2022-08-17T00:58:40.552Z,100701.19
2022-08-17T01:01:11.734Z,100723.91
2022-08-17T01:03:40.330Z,100721.50
2022-08-17T01:06:10.218Z,100721.50
2022-08-17T01:08:40.678Z,100714.09
2022-08-17T01:11:09.433Z,100717.47
2022-08-17T01:13:41.589Z,100720.00
2022-08-17T01:16:17.185Z,100723.22
2022-08-17T01:18:47.898Z,100723.91
2022-08-17T01:21:25.822Z,100726.63
2022-08-17T01:23:55.380Z,100733.25
2022-08-17T01:26:24.154Z,100718.81
2022-08-17T01:28:55.444Z,100720.53
2022-08-17T01:31:29.740Z,100728.00
2022-08-17T01:33:59.569Z,100721.03
2022-08-17T01:36:30.511Z,100719.34
2022-08-17T01:39:00.269Z,100713.91
2022-08-17T01:41:29.453Z,100717.66
2022-08-17T01:44:02.586Z,100714.09
2022-08-17T01:46:34.116Z,100710.53
2022-08-17T01:49:06.411Z,100713.56
2022-08-17T01:51:35.132Z,100691.84
2022-08-17T01:54:07.647Z,100718.84
2022-08-17T01:56:39.661Z,100714.44
2022-08-17T01:59:07.803Z,100708.47
2022-08-17T02:01:37.148Z,100711.03
2022-08-17T02:04:07.130Z,100709.34
2022-08-17T02:06:52.697Z,100706.09
2022-08-17T02:09:25.666Z,100715.78
2022-08-17T02:11:54.806Z,100716.81
2022-08-17T02:14:25.354Z,100715.97
2022-08-17T02:16:54.655Z,100706.97
2022-08-17T02:19:23.593Z,100711.72
2022-08-17T02:21:53.437Z,100713.44
2022-08-17T02:24:58.600Z,100722.38
2022-08-17T02:27:13.413Z,100730.72
2022-08-17T02:29:41.418Z,100727.16
2022-08-17T02:32:22.268Z,100722.38
2022-08-17T02:34:56.642Z,100714.63
2022-08-17T02:37:24.694Z,100716.47
2022-08-17T02:39:54.143Z,100730.72
2022-08-17T02:42:27.765Z,100725.28
2022-08-17T02:44:55.944Z,100727.34
2022-08-17T02:47:24.146Z,100725.47
2022-08-17T02:49:54.331Z,100727.34
2022-08-17T02:52:42.892Z,100720.19
2022-08-17T02:55:16.609Z,100727.34
2022-08-17T02:57:45.129Z,100730.19
2022-08-17T03:00:17.006Z,100720.19
2022-08-17T03:02:45.910Z,100727.63
2022-08-17T03:05:16.911Z,100728.81
2022-08-17T03:07:44.981Z,100733.41
2022-08-17T03:10:15.656Z,100728.97
2022-08-17T03:12:44.516Z,100721.69
2022-08-17T03:15:15.641Z,100723.53
2022-08-17T03:17:44.063Z,100734.59
2022-08-17T03:20:13.666Z,100721.19
2022-08-17T03:22:47.982Z,100731.03
2022-08-17T03:25:25.908Z,100717.63
2022-08-17T03:27:54.831Z,100723.22
2022-08-17T03:30:23.825Z,100728.63
2022-08-17T03:32:54.680Z,100731.34
2022-08-17T03:35:24.727Z,100733.25
2022-08-17T03:38:00.348Z,100720.69
2022-08-17T03:40:34.594Z,100725.25
2022-08-17T03:43:21.871Z,100729.81
2022-08-17T03:46:10.774Z,100720.53
2022-08-17T03:49:13.373Z,100722.22
2022-08-17T03:51:58.627Z,100727.28
2022-08-17T03:54:44.446Z,100718.50
2022-08-17T03:57:14.167Z,100705.44
2022-08-17T03:59:42.434Z,100726.44
2022-08-17T04:02:14.092Z,100714.41
2022-08-17T04:04:42.157Z,100717.31
2022-08-17T04:07:10.522Z,100723.72
2022-08-17T04:09:38.486Z,100725.44
2022-08-17T04:12:07.008Z,100729.16
2022-08-17T04:14:51.802Z,100731.88
2022-08-17T04:17:22.976Z,100705.09
2022-08-17T04:19:50.948Z,100730.88
2022-08-17T04:22:30.132Z,100731.72
2022-08-17T04:25:03.489Z,100731.88
2022-08-17T04:27:31.808Z,100740.00
2022-08-17T04:30:01.372Z,100737.28
2022-08-17T04:33:09.820Z,100739.00
2022-08-17T04:35:22.049Z,100742.56
2022-08-17T04:37:50.383Z,100738.34
2022-08-17T04:40:37.153Z,100744.44
2022-08-17T04:43:08.724Z,100742.91
2022-08-17T04:45:55.632Z,100724.41
2022-08-17T04:48:34.725Z,100754.63
2022-08-17T04:51:07.611Z,100744.59
2022-08-17T04:53:35.692Z,100754.75
2022-08-17T04:56:04.028Z,100750.00
2022-08-17T04:58:32.091Z,100754.75
2022-08-17T05:01:01.592Z,100744.25
2022-08-17T05:03:29.819Z,100755.81
2022-08-17T05:05:57.763Z,100758.50
2022-08-17T05:08:25.842Z,100754.75
2022-08-17T05:10:53.818Z,100747.81
2022-08-17T05:13:23.750Z,100748.47
2022-08-17T05:15:56.598Z,100755.81
2022-08-17T05:18:26.762Z,100750.38
2022-08-17T05:20:55.330Z,100750.38
2022-08-17T05:23:26.430Z,100745.94
2022-08-17T05:26:17.944Z,100754.25
2022-08-17T05:28:57.301Z,100762.56
2022-08-17T05:31:27.949Z,100760.84
2022-08-17T05:33:57.346Z,100767.00
2022-08-17T05:36:41.657Z,100762.56
2022-08-17T05:39:15.842Z,100761.03
2022-08-17T05:41:47.124Z,100756.47
2022-08-17T05:44:15.578Z,100760.84
2022-08-17T05:46:49.120Z,100765.09
2022-08-17T05:49:24.412Z,100762.38
2022-08-17T05:52:14.832Z,100772.22
2022-08-17T05:55:03.740Z,100773.09
2022-08-17T05:57:44.796Z,100762.91
2022-08-17T06:00:30.033Z,100760.03
2022-08-17T06:03:23.537Z,100765.28
2022-08-17T06:06:02.399Z,100769.72
2022-08-17T06:08:35.832Z,100772.25
2022-08-17T06:11:14.052Z,100773.94
2022-08-17T06:13:58.606Z,100772.75
2022-08-17T06:16:34.341Z,100775.63
2022-08-17T06:19:11.190Z,100772.75
2022-08-17T06:21:44.371Z,100781.56
2022-08-17T06:24:28.552Z,100779.72
2022-08-17T06:27:01.058Z,100782.44
2022-08-17T06:29:38.204Z,100774.09
2022-08-17T06:32:09.201Z,100769.69
2022-08-17T06:34:40.689Z,100774.09
2022-08-17T06:37:30.333Z,100742.22
2022-08-17T06:40:12.906Z,100776.50
2022-08-17T06:43:02.817Z,100787.19
2022-08-17T06:45:39.054Z,100790.06
2022-08-17T06:48:12.842Z,100792.63
2022-08-17T06:50:45.442Z,100788.91
2022-08-17T06:53:22.065Z,100786.00
2022-08-17T06:55:59.938Z,100780.59
2022-08-17T06:58:31.939Z,100787.72
2022-08-17T07:01:06.911Z,100797.38
2022-08-17T07:03:40.729Z,100788.38
2022-08-17T07:06:13.633Z,100787.38
2022-08-17T07:08:52.200Z,100798.91
2022-08-17T07:11:28.160Z,100784.50
2022-08-17T07:14:07.053Z,100794.34
2022-08-17T07:16:41.120Z,100792.47
2022-08-17T07:19:10.944Z,100789.75
2022-08-17T07:21:48.841Z,100791.44
2022-08-17T07:24:39.405Z,100801.97
2022-08-17T07:27:11.265Z,100795.53
2022-08-17T07:29:43.004Z,100799.91
2022-08-17T07:32:18.544Z,100795.34
2022-08-17T07:35:11.165Z,100770.56
2022-08-17T07:37:41.348Z,100806.06
2022-08-17T07:40:35.635Z,100798.72
2022-08-17T07:43:21.990Z,100786.72
2022-08-17T07:46:24.233Z,100809.59
2022-08-17T07:48:54.706Z,100805.53
2022-08-17T07:51:29.452Z,100816.56
2022-08-17T07:54:13.676Z,100816.41
2022-08-17T07:56:47.236Z,100814.69
2022-08-17T07:59:23.640Z,100809.94
2022-08-17T08:02:05.428Z,100810.78
2022-08-17T08:05:06.759Z,100806.41
2022-08-17T08:07:29.494Z,100799.91
2022-08-17T08:10:09.930Z,100800.25
2022-08-17T08:12:42.013Z,100818.44
2022-08-17T08:15:17.742Z,100804.69
2022-08-17T08:17:53.153Z,100806.41
2022-08-17T08:20:37.720Z,100802.81
2022-08-17T08:23:35.969Z,100801.78
2022-08-17T08:26:18.563Z,100794.50
2022-08-17T08:28:55.660Z,100805.34
2022-08-17T08:31:32.045Z,100796.19
2022-08-17T08:34:58.842Z,100802.50
2022-08-17T08:37:17.783Z,100807.06
2022-08-17T08:39:59.645Z,100812.31
2022-08-17T08:42:35.844Z,100813.16
2022-08-17T08:45:13.647Z,100811.97
2022-08-17T08:48:05.388Z,100817.22
2022-08-17T08:50:43.753Z,100821.66
2022-08-17T08:53:21.306Z,100824.22
2022-08-17T08:55:55.917Z,100809.78
2022-08-17T08:58:41.985Z,100818.06
2022-08-17T09:01:22.236Z,100817.75
2022-08-17T09:05:10.329Z,100822.31
2022-08-17T09:07:39.023Z,100823.50
2022-08-17T09:10:14.977Z,100822.31
2022-08-17T09:12:49.908Z,100833.19
2022-08-17T09:15:22.932Z,100816.88
2022-08-17T09:18:59.409Z,100817.59
2022-08-17T09:20:52.440Z,100818.78
2022-08-17T09:23:37.038Z,100826.56
2022-08-17T09:26:11.505Z,100834.72
2022-08-17T09:28:45.836Z,100829.97
2022-08-17T09:31:20.777Z,100830.81
2022-08-17T09:33:51.280Z,100827.25
2022-08-17T09:36:29.266Z,100835.41
2022-08-17T09:39:02.566Z,100832.00
2022-08-17T09:41:38.822Z,100834.56
2022-08-17T09:44:25.630Z,100842.84
2022-08-17T09:46:57.034Z,100848.28
2022-08-17T09:49:31.992Z,100816.41
2022-08-17T09:52:04.516Z,100842.69
2022-08-17T09:54:39.913Z,100839.13
2022-08-17T09:57:31.837Z,100840.84
2022-08-17T10:00:18.744Z,100841.19
2022-08-17T10:03:24.196Z,100839.31
2022-08-17T10:06:00.787Z,100839.47
2022-08-17T10:08:40.202Z,100835.75
2022-08-17T10:11:33.285Z,100814.53
2022-08-17T10:14:36.720Z,100842.03
2022-08-17T10:17:04.168Z,100845.56
2022-08-17T10:19:39.049Z,100834.72
2022-08-17T10:22:41.472Z,100833.69
2022-08-17T10:25:48.613Z,100843.22
2022-08-17T10:28:25.802Z,100842.19
2022-08-17T10:31:30.834Z,100835.41
2022-08-17T10:34:00.136Z,100840.13
2022-08-17T10:36:43.206Z,100841.00
2022-08-17T10:39:25.940Z,100848.13
2022-08-17T10:42:00.600Z,100846.44
2022-08-17T10:44:45.576Z,100853.56
2022-08-17T10:47:17.172Z,100850.84
2022-08-17T10:49:53.561Z,100842.84
2022-08-17T10:52:50.009Z,100841.66
2022-08-17T10:55:21.218Z,100845.41
2022-08-17T10:57:51.218Z,100842.84
2022-08-17T11:01:12.685Z,100845.91
2022-08-17T11:03:53.494Z,100844.38
2022-08-17T11:06:31.373Z,100846.94
2022-08-17T11:09:19.816Z,100851.19
2022-08-17T11:12:07.657Z,100845.09
2022-08-17T11:14:49.640Z,100845.09
2022-08-17T11:17:37.548Z,100843.19
2022-08-17T11:20:22.340Z,100848.63
2022-08-17T11:23:21.793Z,100850.53
2022-08-17T11:25:54.252Z,100847.81
2022-08-17T11:28:28.037Z,100840.31
2022-08-17T11:30:59.361Z,100845.75
2022-08-17T11:34:04.763Z,100843.91
2022-08-17T11:37:11.051Z,100843.91
2022-08-17T11:39:55.442Z,100834.69
2022-08-17T11:42:40.941Z,100843.03
2022-08-17T11:45:33.765Z,100838.28
2022-08-17T11:48:31.381Z,100832.84
2022-08-17T11:51:24.872Z,100822.66
2022-08-17T11:57:02.249Z,100824.34
2022-08-17T11:59:59.446Z,100823.88
2022-08-17T12:02:35.800Z,100819.28
2022-08-17T12:05:26.129Z,100821.81
2022-08-17T12:08:06.539Z,100828.09
2022-08-17T12:10:37.426Z,100824.38
2022-08-17T12:13:11.515Z,100795.34
2022-08-17T12:15:45.046Z,100821.31
2022-08-17T12:18:22.528Z,100815.69
2022-08-17T12:21:06.404Z,100811.13
2022-08-17T12:23:44.138Z,100809.25
2022-08-17T12:26:19.381Z,100793.78
2022-08-17T12:28:49.795Z,100795.50
2022-08-17T12:31:22.812Z,100798.88
2022-08-17T12:33:52.752Z,100794.28
2022-08-17T12:36:24.991Z,100786.13
2022-08-17T12:39:13.899Z,100788.84
2022-08-17T12:41:46.819Z,100788.00
2022-08-17T12:44:18.154Z,100780.03
2022-08-17T12:46:53.230Z,100786.00
2022-08-17T12:49:27.449Z,100784.94
2022-08-17T12:52:04.268Z,100773.06
2022-08-17T12:54:41.733Z,100783.09
2022-08-17T12:57:15.683Z,100792.56
2022-08-17T12:59:46.606Z,100791.56
2022-08-17T13:02:35.838Z,100782.22
2022-08-17T13:05:08.246Z,100782.22
2022-08-17T13:07:43.107Z,100799.53
2022-08-17T13:10:18.404Z,100794.78
2022-08-17T13:12:47.965Z,100794.09
2022-08-17T13:15:22.234Z,100796.31
2022-08-17T13:17:58.533Z,100799.69
2022-08-17T13:20:28.135Z,100798.84
2022-08-17T13:22:58.729Z,100790.53
2022-08-17T13:25:29.357Z,100787.63
2022-08-17T13:27:58.026Z,100777.13
2022-08-17T13:30:32.607Z,100783.38
2022-08-17T13:33:04.809Z,100795.59
2022-08-17T13:35:47.132Z,100797.28
2022-08-17T13:38:37.559Z,100800.88
2022-08-17T13:41:06.408Z,100804.59
2022-08-17T13:43:48.568Z,100811.56
2022-08-17T13:46:22.698Z,100819.69
2022-08-17T13:49:00.259Z,100823.94
2022-08-17T13:51:33.780Z,100819.53
2022-08-17T13:54:09.523Z,100823.09
2022-08-17T13:56:41.710Z,100799.38
2022-08-17T13:59:13.684Z,100822.94
2022-08-17T14:01:44.086Z,100825.66
2022-08-17T14:04:14.415Z,100817.66
2022-08-17T14:06:54.087Z,100821.06
2022-08-17T14:09:24.556Z,100798.50
2022-08-17T14:11:54.230Z,100819.19
2022-08-17T14:14:23.678Z,100825.47
2022-08-17T14:16:52.131Z,100827.34
2022-08-17T14:19:21.943Z,100834.31
2022-08-17T14:21:56.460Z,100819.19
2022-08-17T14:24:27.482Z,100827.84
2022-08-17T14:26:55.918Z,100816.97
2022-08-17T14:29:26.014Z,100817.81
2022-08-17T14:31:54.334Z,100814.25
2022-08-17T14:34:23.401Z,100813.22
2022-08-17T14:36:53.232Z,100823.91
2022-08-17T14:39:21.673Z,100818.00
2022-08-17T14:41:50.166Z,100822.25
2022-08-17T14:44:18.286Z,100820.34
2022-08-17T14:46:47.949Z,100820.34
2022-08-17T14:49:16.148Z,100815.75
2022-08-17T14:51:44.770Z,100811.53
2022-08-17T14:54:32.952Z,100832.75
2022-08-17T14:57:22.642Z,100841.94
2022-08-17T14:59:54.253Z,100837.34
2022-08-17T15:02:29.307Z,100838.19
2022-08-17T15:05:00.129Z,100832.75
2022-08-17T15:07:31.165Z,100837.16
2022-08-17T15:10:02.113Z,100807.94
2022-08-17T15:12:34.304Z,100802.53
2022-08-17T15:15:04.766Z,100827.81
2022-08-17T15:17:44.837Z,100832.41
2022-08-17T15:20:15.882Z,100836.97
2022-08-17T15:22:46.196Z,100842.41
2022-08-17T15:25:15.979Z,100833.13
2022-08-17T15:27:44.076Z,100838.03
2022-08-17T15:30:13.581Z,100839.53
2022-08-17T15:32:50.798Z,100821.22
2022-08-17T15:35:27.349Z,100849.56
2022-08-17T15:38:07.977Z,100839.53
2022-08-17T15:40:39.209Z,100833.06
2022-08-17T15:43:07.760Z,100840.41
2022-08-17T15:45:35.770Z,100833.06
2022-08-17T15:48:04.262Z,100836.97
2022-08-17T15:50:32.496Z,100852.09
2022-08-17T15:53:02.062Z,100850.25
2022-08-17T15:55:31.962Z,100848.41
2022-08-17T15:58:01.708Z,100860.97
2022-08-17T16:00:29.979Z,100870.16
2022-08-17T16:03:44.679Z,100870.16
2022-08-17T16:05:48.918Z,100874.72
2022-08-17T16:08:21.154Z,100872.88
2022-08-17T16:10:50.176Z,100867.59
2022-08-17T16:13:20.411Z,100875.59
2022-08-17T16:15:56.949Z,100871.84
2022-08-17T16:18:30.968Z,100881.88
2022-08-17T16:21:20.488Z,100876.56
2022-08-17T16:23:49.534Z,100892.88
2022-08-17T16:26:18.013Z,100894.94
2022-08-17T16:28:47.808Z,100892.88
2022-08-17T16:31:16.616Z,100900.91
2022-08-17T16:34:16.163Z,100904.66
2022-08-17T16:36:34.060Z,100899.34
2022-08-17T16:39:01.994Z,100889.69
2022-08-17T16:41:45.151Z,100906.66
2022-08-17T16:44:15.732Z,100894.78
2022-08-17T16:46:45.802Z,100900.22
2022-08-17T16:49:35.441Z,100903.94
2022-08-17T16:52:04.126Z,100904.13
2022-08-17T16:54:32.824Z,100907.66
2022-08-17T16:57:00.773Z,100906.84
2022-08-17T16:59:41.042Z,100909.56
2022-08-17T17:02:15.370Z,100913.09
2022-08-17T17:04:51.563Z,100908.88
2022-08-17T17:07:49.618Z,100919.75
2022-08-17T17:10:19.929Z,100919.41
2022-08-17T17:13:02.369Z,100924.69
2022-08-17T17:15:46.360Z,100921.31
2022-08-17T17:18:15.441Z,100919.94
2022-08-17T17:20:48.929Z,100924.38
2022-08-17T17:23:31.297Z,100922.84
2022-08-17T17:26:10.975Z,100922.13
2022-08-17T17:28:46.363Z,100925.03
2022-08-17T17:31:19.259Z,100929.63
2022-08-17T17:33:51.119Z,100930.66
2022-08-17T17:36:26.775Z,100940.50
2022-08-17T17:38:57.260Z,100938.81
2022-08-17T17:41:31.418Z,100943.88
2022-08-17T17:44:03.748Z,100947.81
2022-08-17T17:46:37.957Z,100946.97
2022-08-17T17:49:07.012Z,100947.97
2022-08-17T17:52:08.612Z,100937.13
2022-08-17T17:54:52.272Z,100945.44
2022-08-17T17:57:29.769Z,100936.94
2022-08-17T18:00:06.963Z,100947.13
2022-08-17T18:02:57.247Z,100943.56
2022-08-17T18:05:36.359Z,100950.88
2022-08-17T18:08:34.043Z,100948.31
2022-08-17T18:11:14.927Z,100953.94
2022-08-17T18:14:05.727Z,100954.94
2022-08-17T18:16:35.873Z,100945.09
2022-08-17T18:19:06.176Z,100949.50
2022-08-17T18:21:38.089Z,100948.66
2022-08-17T18:24:10.404Z,100953.25
2022-08-17T18:26:46.366Z,100957.66
2022-08-17T18:29:31.351Z,100952.75
2022-08-17T18:32:23.817Z,100947.31
2022-08-17T18:34:55.944Z,100965.47
2022-08-17T18:37:45.919Z,100973.63
2022-08-17T18:40:32.822Z,100960.03
2022-08-17T18:43:06.067Z,100979.59
2022-08-17T18:45:38.465Z,100981.13
2022-08-17T18:48:18.188Z,100992.13
2022-08-17T18:50:47.685Z,101001.31
2022-08-17T18:53:36.879Z,101007.63
2022-08-17T18:56:32.464Z,101017.78
2022-08-17T18:59:10.995Z,101019.69
2022-08-17T19:01:53.621Z,101026.97
2022-08-17T19:04:34.035Z,101026.97
2022-08-17T19:07:12.981Z,101025.44
2022-08-17T19:09:47.008Z,101026.13
2022-08-17T19:12:27.822Z,101025.25
2022-08-17T19:14:58.066Z,101029.84
2022-08-17T19:17:33.363Z,101029.03
2022-08-17T19:20:06.361Z,101030.03
2022-08-17T19:22:46.585Z,101034.47
2022-08-17T19:25:19.783Z,101020.00
2022-08-17T19:27:57.738Z,101025.59
2022-08-17T19:30:27.838Z,100976.31
2022-08-17T19:32:57.766Z,101016.78
2022-08-17T19:35:31.899Z,101019.66
2022-08-17T19:38:13.232Z,101023.22
2022-08-17T19:41:00.572Z,101001.25
2022-08-17T19:43:47.939Z,101020.31
2022-08-17T19:46:26.138Z,101020.31
2022-08-17T19:49:02.646Z,101029.34
2022-08-17T19:51:40.570Z,101021.34
2022-08-17T19:54:20.486Z,101027.47
2022-08-17T19:56:56.575Z,101032.91
2022-08-17T19:59:36.374Z,101037.31
2022-08-17T20:02:20.771Z,101041.72
2022-08-17T20:04:51.681Z,101052.59
2022-08-17T20:07:25.125Z,101051.56
2022-08-17T20:10:01.246Z,101055.00
2022-08-17T20:12:35.002Z,101043.59
2022-08-17T20:15:09.544Z,101051.56
2022-08-17T20:17:43.248Z,101062.09
2022-08-17T20:20:27.843Z,101060.06
2022-08-17T20:23:03.813Z,101061.97
2022-08-17T20:25:43.389Z,101066.34
2022-08-17T20:28:21.083Z,101063.63
2022-08-17T20:30:51.825Z,101069.25
2022-08-17T20:33:29.929Z,101073.66
2022-08-17T20:36:06.304Z,101069.94
2022-08-17T20:38:44.395Z,101069.94
2022-08-17T20:41:16.800Z,101073.66
2022-08-17T20:44:04.626Z,101068.22
2022-08-17T20:46:56.545Z,101066.34
2022-08-17T20:49:28.864Z,101066.34
2022-08-17T20:52:03.713Z,101066.34
2022-08-17T20:54:45.463Z,101073.50
2022-08-17T20:57:47.398Z,101077.22
2022-08-17T21:00:44.596Z,101074.69
2022-08-17T21:03:52.231Z,101081.97
2022-08-17T21:06:26.005Z,101086.75
2022-08-17T21:08:57.959Z,101075.00
2022-08-17T21:12:03.925Z,101083.34
2022-08-17T21:14:42.926Z,101083.50
2022-08-17T21:17:38.726Z,101098.78
2022-08-17T21:20:16.261Z,101103.38
2022-08-17T21:22:58.041Z,101093.50
2022-08-17T21:25:44.860Z,101106.25
2022-08-17T21:28:22.804Z,101103.56
2022-08-17T21:31:08.301Z,101100.13
2022-08-17T21:33:40.082Z,101099.28
2022-08-17T21:36:25.446Z,101113.69
2022-08-17T21:39:01.443Z,101111.16
2022-08-17T21:41:33.805Z,101113.03
2022-08-17T21:44:21.628Z,101111.31
2022-08-17T21:46:53.577Z,101112.31
2022-08-17T21:49:28.627Z,101112.13
2022-08-17T21:51:57.791Z,101115.19
2022-08-17T21:54:31.765Z,101108.59
2022-08-17T21:57:02.348Z,101115.03
2022-08-17T21:59:32.957Z,101101.06
2022-08-17T22:02:05.670Z,101115.19
2022-08-17T22:04:35.469Z,101092.72
2022-08-17T22:07:05.807Z,101123.50
2022-08-17T22:09:36.775Z,101128.25
2022-08-17T22:12:08.897Z,101126.41
2022-08-17T22:14:53.471Z,101118.41
2022-08-17T22:17:25.689Z,101115.53
2022-08-17T22:19:56.448Z,101116.53
2022-08-17T22:22:28.869Z,101123.69
2022-08-17T22:24:59.078Z,101124.69
2022-08-17T22:27:52.403Z,101130.28
2022-08-17T22:30:33.185Z,101133.34
2022-08-17T22:33:37.299Z,101138.78
2022-08-17T22:36:14.435Z,101144.19
2022-08-17T22:38:43.812Z,101146.06
2022-08-17T22:41:32.072Z,101148.59
2022-08-17T22:44:07.523Z,101147.78
2022-08-17T22:46:41.148Z,101148.78
2022-08-17T22:49:10.538Z,101147.06
2022-08-17T22:51:38.604Z,101149.97
2022-08-17T22:54:37.837Z,101149.09
2022-08-17T22:57:24.077Z,101155.03
2022-08-17T22:59:54.932Z,101158.75
2022-08-17T23:02:26.201Z,101145.84
2022-08-17T23:05:16.935Z,101154.34
2022-08-17T23:07:47.138Z,101158.38
2022-08-17T23:10:16.189Z,101155.84
2022-08-17T23:12:44.232Z,101163.31
2022-08-17T23:15:16.742Z,101164.31
2022-08-17T23:17:45.386Z,101167.19
2022-08-17T23:20:17.593Z,101163.78
2022-08-17T23:22:51.985Z,101172.63
2022-08-17T23:25:27.911Z,101178.75
2022-08-17T23:27:57.358Z,101179.06
2022-08-17T23:30:28.480Z,101177.34
2022-08-17T23:32:56.918Z,101172.94
2022-08-17T23:35:40.461Z,101167.66
2022-08-17T23:38:10.413Z,101152.88
2022-08-17T23:40:39.923Z,101166.13
2022-08-17T23:43:17.644Z,101162.72
2022-08-17T23:45:54.878Z,101168.31
2022-08-17T23:48:28.455Z,101148.72
2022-08-17T23:51:09.760Z,101173.22
2022-08-17T23:53:42.288Z,101177.97
2022-08-17T23:56:11.786Z,101172.53
2022-08-17T23:58:42.115Z,101163.53
